createdAt,value
2018-12-12T00:01:41.434Z,94721.09
2018-12-12T00:04:14.517Z,94725.29
2018-12-12T00:06:46.613Z,94724.98
2018-12-12T00:09:18.849Z,94723.09
2018-12-12T00:11:51.220Z,94724.41
2018-12-12T00:14:23.415Z,94724.05
2018-12-12T00:16:55.111Z,94729.25
2018-12-12T00:19:27.113Z,94723.18
2018-12-12T00:21:59.014Z,94728.73
2018-12-12T00:24:30.766Z,94732.28
2018-12-12T00:27:03.329Z,94726.63
2018-12-12T00:29:35.409Z,94732.84
2018-12-12T00:32:08.068Z,94737.23
2018-12-12T00:34:39.884Z,94730.01
2018-12-12T00:37:12.050Z,94731.88
2018-12-12T00:39:44.188Z,94732.70
2018-12-12T00:42:17.873Z,94736.25
2018-12-12T00:44:50.553Z,94735.39
2018-12-12T00:47:22.684Z,94739.78
2018-12-12T00:49:54.915Z,94741.86
2018-12-12T00:52:26.801Z,94743.40
2018-12-12T00:54:59.249Z,94746.12
2018-12-12T00:57:31.072Z,94743.48
2018-12-12T01:00:02.980Z,94742.64
2018-12-12T01:02:34.906Z,94742.81
2018-12-12T01:05:07.791Z,94745.03
2018-12-12T01:07:39.669Z,94751.44
2018-12-12T01:10:11.699Z,94752.31
2018-12-12T01:12:43.765Z,94746.19
2018-12-12T01:15:15.725Z,94742.02
2018-12-12T01:17:47.754Z,94738.62
2018-12-12T01:20:19.686Z,94740.64
2018-12-12T01:22:51.621Z,94739.75
2018-12-12T01:25:23.318Z,94735.80
2018-12-12T01:27:55.410Z,94738.52
2018-12-12T01:30:27.264Z,94747.00
2018-12-12T01:32:59.799Z,94744.27
2018-12-12T01:35:31.365Z,94743.84
2018-12-12T01:38:03.262Z,94746.39
2018-12-12T01:40:35.306Z,94745.36
2018-12-12T01:43:07.733Z,94739.65
2018-12-12T01:45:40.329Z,94747.20
2018-12-12T01:48:12.782Z,94746.27
2018-12-12T01:50:44.673Z,94748.94
2018-12-12T01:53:16.655Z,94748.70
2018-12-12T01:55:49.395Z,94747.42
2018-12-12T01:58:21.201Z,94748.01
2018-12-12T02:00:52.999Z,94746.50
2018-12-12T02:03:25.292Z,94741.20
2018-12-12T02:05:58.175Z,94741.42
2018-12-12T02:08:30.025Z,94745.12
2018-12-12T02:11:02.046Z,94750.02
2018-12-12T02:13:39.757Z,94746.95
2018-12-12T02:16:11.891Z,94746.92
2018-12-12T02:18:47.040Z,94744.41
2018-12-12T02:21:18.952Z,94741.06
2018-12-12T02:23:50.739Z,94742.61
2018-12-12T02:26:22.726Z,94740.13
2018-12-12T02:28:54.902Z,94739.55
2018-12-12T02:31:26.813Z,94741.67
2018-12-12T02:33:59.301Z,94734.75
2018-12-12T02:36:31.001Z,94734.72
2018-12-12T02:39:03.749Z,94728.97
2018-12-12T02:41:35.648Z,94732.70
2018-12-12T02:44:07.241Z,94731.66
2018-12-12T02:46:40.018Z,94733.11
2018-12-12T02:49:12.031Z,94729.98
2018-12-12T02:51:44.177Z,94730.19
2018-12-12T02:54:16.005Z,94729.80
2018-12-12T02:56:47.971Z,94731.61
2018-12-12T02:59:19.968Z,94730.36
2018-12-12T03:01:52.176Z,94728.28
2018-12-12T03:04:24.812Z,94728.52
2018-12-12T03:06:56.691Z,94725.09
2018-12-12T03:09:28.776Z,94721.27
2018-12-12T03:12:00.581Z,94720.33
2018-12-12T03:14:32.535Z,94724.36
2018-12-12T03:17:04.718Z,94727.56
2018-12-12T03:19:38.415Z,94723.89
2018-12-12T03:22:10.172Z,94726.20
2018-12-12T03:24:42.117Z,94718.13
2018-12-12T03:27:14.143Z,94723.69
2018-12-12T03:29:46.211Z,94727.23
2018-12-12T03:32:18.395Z,94723.20
2018-12-12T03:34:50.102Z,94725.05
2018-12-12T03:37:22.785Z,94725.82
2018-12-12T03:39:54.863Z,94727.34
2018-12-12T03:42:27.743Z,94728.97
2018-12-12T03:44:59.792Z,94732.41
2018-12-12T03:47:31.736Z,94728.11
2018-12-12T03:50:03.652Z,94734.45
2018-12-12T03:52:35.759Z,94730.25
2018-12-12T03:55:08.152Z,94734.41
2018-12-12T03:57:40.196Z,94732.10
2018-12-12T04:00:13.375Z,94740.44
2018-12-12T04:02:45.243Z,94745.30
2018-12-12T04:05:17.241Z,94744.14
2018-12-12T04:07:49.845Z,94749.70
2018-12-12T04:10:22.983Z,94751.13
2018-12-12T04:12:54.696Z,94756.20
2018-12-12T04:15:26.761Z,94755.16
2018-12-12T04:17:59.039Z,94754.36
2018-12-12T04:20:31.348Z,94754.00
2018-12-12T04:23:04.729Z,94753.94
2018-12-12T04:25:36.745Z,94753.07
2018-12-12T04:28:08.462Z,94757.34
2018-12-12T04:30:40.303Z,94764.02
2018-12-12T04:33:12.528Z,94766.00
2018-12-12T04:35:44.315Z,94776.77
2018-12-12T04:38:16.257Z,94772.39
2018-12-12T04:40:49.384Z,94778.77
2018-12-12T04:43:21.311Z,94773.91
2018-12-12T04:45:53.257Z,94772.95
2018-12-12T04:48:25.777Z,94779.93
2018-12-12T04:50:58.144Z,94782.84
2018-12-12T04:53:29.973Z,94783.78
2018-12-12T04:56:02.132Z,94785.19
2018-12-12T04:58:34.730Z,94788.73
2018-12-12T05:01:06.693Z,94790.72
2018-12-12T05:03:38.815Z,94791.84
2018-12-12T05:06:11.090Z,94795.61
2018-12-12T05:08:43.293Z,94795.92
2018-12-12T05:11:15.430Z,94798.16
2018-12-12T05:13:47.375Z,94799.03
2018-12-12T05:16:19.548Z,94799.05
2018-12-12T05:18:51.395Z,94799.05
2018-12-12T05:21:23.241Z,94801.58
2018-12-12T05:23:55.273Z,94808.69
2018-12-12T05:26:28.035Z,94800.38
2018-12-12T05:29:00.196Z,94804.22
2018-12-12T05:31:32.258Z,94810.60
2018-12-12T05:34:04.513Z,94808.18
2018-12-12T05:36:36.949Z,94806.41
2018-12-12T05:39:09.719Z,94805.64
2018-12-12T05:41:42.769Z,94804.23
2018-12-12T05:44:15.578Z,94806.00
2018-12-12T05:46:47.697Z,94810.48
2018-12-12T05:49:19.904Z,94825.91
2018-12-12T05:51:52.270Z,94824.80
2018-12-12T05:54:24.218Z,94823.25
2018-12-12T05:56:56.293Z,94823.73
2018-12-12T05:59:28.771Z,94825.27
2018-12-12T06:02:01.070Z,94819.55
2018-12-12T06:04:32.811Z,94825.63
2018-12-12T06:07:04.938Z,94824.30
2018-12-12T06:09:37.145Z,94830.42
2018-12-12T06:12:09.162Z,94830.92
2018-12-12T06:14:41.195Z,94829.55
2018-12-12T06:17:13.490Z,94835.25
2018-12-12T06:19:46.596Z,94838.08
2018-12-12T06:22:18.824Z,94833.87
2018-12-12T06:24:51.084Z,94840.32
2018-12-12T06:27:24.016Z,94848.98
2018-12-12T06:29:56.049Z,94841.63
2018-12-12T06:32:28.069Z,94848.41
2018-12-12T06:35:00.163Z,94847.04
2018-12-12T06:37:32.144Z,94854.09
2018-12-12T06:40:04.249Z,94848.66
2018-12-12T06:42:36.345Z,94850.73
2018-12-12T06:45:08.816Z,94847.84
2018-12-12T06:47:41.487Z,94846.86
2018-12-12T06:50:13.578Z,94852.22
2018-12-12T06:52:46.450Z,94851.50
2018-12-12T06:55:18.753Z,94848.98
2018-12-12T06:57:50.622Z,94850.95
2018-12-12T07:00:22.573Z,94858.91
2018-12-12T07:02:59.148Z,94856.41
2018-12-12T07:05:31.164Z,94869.75
2018-12-12T07:08:03.153Z,94867.28
2018-12-12T07:10:35.233Z,94862.05
2018-12-12T07:13:07.204Z,94863.77
2018-12-12T07:15:39.130Z,94862.61
2018-12-12T07:18:11.476Z,94863.42
2018-12-12T07:20:43.985Z,94866.03
2018-12-12T07:23:16.849Z,94868.67
2018-12-12T07:25:48.610Z,94866.23
2018-12-12T07:28:20.638Z,94864.75
2018-12-12T07:30:52.871Z,94863.86
2018-12-12T07:33:25.483Z,94868.06
2018-12-12T07:35:59.615Z,94866.85
2018-12-12T07:38:32.328Z,94871.58
2018-12-12T07:41:04.409Z,94869.13
2018-12-12T07:43:36.330Z,94860.91
2018-12-12T07:46:08.935Z,94856.50
2018-12-12T07:48:41.184Z,94868.36
2018-12-12T07:51:13.368Z,94883.77
2018-12-12T07:53:45.500Z,94887.81
2018-12-12T07:56:17.604Z,94888.20
2018-12-12T07:58:50.111Z,94891.45
2018-12-12T08:01:22.311Z,94892.12
2018-12-12T08:03:54.103Z,94888.52
2018-12-12T08:06:26.167Z,94892.48
2018-12-12T08:08:58.443Z,94881.34
2018-12-12T08:11:30.356Z,94883.97
2018-12-12T08:14:03.131Z,94892.49
2018-12-12T08:16:36.704Z,94898.61
2018-12-12T08:19:09.639Z,94892.78
2018-12-12T08:21:41.598Z,94905.37
2018-12-12T08:24:13.574Z,94914.09
2018-12-12T08:26:45.503Z,94911.17
2018-12-12T08:29:17.697Z,94911.50
2018-12-12T08:31:49.984Z,94907.64
2018-12-12T08:34:22.924Z,94907.03
2018-12-12T08:36:55.446Z,94917.91
2018-12-12T08:39:27.749Z,94920.47
2018-12-12T08:42:00.048Z,94919.33
2018-12-12T08:44:32.075Z,94911.80
2018-12-12T08:47:04.076Z,94907.84
2018-12-12T08:49:36.849Z,94907.88
2018-12-12T08:52:09.337Z,94903.65
2018-12-12T08:54:41.935Z,94906.79
2018-12-12T08:57:14.561Z,94906.48
2018-12-12T08:59:46.843Z,94911.84
2018-12-12T09:02:18.959Z,94910.81
2018-12-12T09:04:51.360Z,94910.82
2018-12-12T09:07:23.515Z,94912.35
2018-12-12T09:09:55.668Z,94909.85
2018-12-12T09:12:27.736Z,94913.84
2018-12-12T09:14:59.769Z,94917.45
2018-12-12T09:17:32.059Z,94918.69
2018-12-12T09:20:04.234Z,94916.16
2018-12-12T09:22:36.920Z,94910.11
2018-12-12T09:25:09.854Z,94914.98
2018-12-12T09:27:41.984Z,94914.48
2018-12-12T09:30:14.285Z,94915.26
2018-12-12T09:32:46.412Z,94911.42
2018-12-12T09:35:18.499Z,94911.63
2018-12-12T09:37:50.625Z,94909.16
2018-12-12T09:40:22.867Z,94899.54
2018-12-12T09:42:54.564Z,94899.08
2018-12-12T09:45:27.368Z,94901.70
2018-12-12T09:48:00.119Z,94893.61
2018-12-12T09:50:32.496Z,94900.68
2018-12-12T09:53:04.631Z,94893.73
2018-12-12T09:55:37.698Z,94891.92
2018-12-12T09:58:10.044Z,94883.17
2018-12-12T10:00:42.446Z,94891.12
2018-12-12T10:03:14.761Z,94883.11
2018-12-12T10:05:47.027Z,94888.23
2018-12-12T10:08:19.202Z,94883.61
2018-12-12T10:10:51.364Z,94878.97
2018-12-12T10:13:23.395Z,94874.58
2018-12-12T10:15:55.304Z,94879.17
2018-12-12T10:18:27.719Z,94875.02
2018-12-12T10:20:59.796Z,94869.86
2018-12-12T10:23:31.745Z,94870.86
2018-12-12T10:26:04.221Z,94875.63
2018-12-12T10:28:37.409Z,94865.23
2018-12-12T10:31:09.418Z,94859.78
2018-12-12T10:33:41.322Z,94864.75
2018-12-12T10:36:13.205Z,94862.66
2018-12-12T10:38:45.359Z,94864.73
2018-12-12T10:41:18.052Z,94860.43
2018-12-12T10:43:50.458Z,94860.38
2018-12-12T10:46:22.713Z,94855.34
2018-12-12T10:48:55.191Z,94858.04
2018-12-12T10:51:27.183Z,94856.94
2018-12-12T10:53:59.394Z,94859.05
2018-12-12T10:56:31.688Z,94847.13
2018-12-12T10:59:03.892Z,94845.16
2018-12-12T11:01:42.161Z,94841.20
2018-12-12T11:04:14.567Z,94838.52
2018-12-12T11:06:46.636Z,94839.89
2018-12-12T11:09:18.609Z,94834.39
2018-12-12T11:11:50.597Z,94841.15
2018-12-12T11:14:22.805Z,94829.27
2018-12-12T11:16:54.934Z,94832.74
2018-12-12T11:19:27.438Z,94824.86
2018-12-12T11:22:00.051Z,94830.73
2018-12-12T11:24:32.246Z,94825.30
2018-12-12T11:27:04.451Z,94826.13
2018-12-12T11:29:36.693Z,94827.55
2018-12-12T11:32:08.787Z,94818.08
2018-12-12T11:34:57.017Z,94809.97
2018-12-12T11:37:29.008Z,94818.10
2018-12-12T11:40:01.067Z,94813.98
2018-12-12T11:42:33.306Z,94814.11
2018-12-12T11:45:05.415Z,94817.96
2018-12-12T11:47:37.381Z,94823.31
2018-12-12T11:50:09.741Z,94814.67
2018-12-12T11:52:41.872Z,94819.47
2018-12-12T11:55:14.182Z,94821.55
2018-12-12T11:57:46.525Z,94824.92
2018-12-12T12:00:19.298Z,94820.83
2018-12-12T12:02:51.375Z,94819.76
2018-12-12T12:05:23.875Z,94820.95
2018-12-12T12:07:55.760Z,94823.08
2018-12-12T12:10:27.832Z,94813.97
2018-12-12T12:13:01.088Z,94810.99
2018-12-12T12:15:33.739Z,94814.30
2018-12-12T12:18:05.940Z,94818.41
2018-12-12T12:20:37.899Z,94817.70
2018-12-12T12:23:09.924Z,94818.58
2018-12-12T12:25:41.827Z,94828.56
2018-12-12T12:28:13.965Z,94830.08
2018-12-12T12:30:45.987Z,94831.86
2018-12-12T12:33:18.097Z,94841.28
2018-12-12T12:35:51.312Z,94850.15
2018-12-12T12:38:23.785Z,94846.00
2018-12-12T12:40:55.775Z,94852.20
2018-12-12T12:43:27.913Z,94852.14
2018-12-12T12:46:00.210Z,94847.98
2018-12-12T12:48:32.044Z,94852.27
2018-12-12T12:51:03.957Z,94856.39
2018-12-12T12:53:36.681Z,94854.80
2018-12-12T12:56:08.868Z,94853.27
2018-12-12T12:58:40.600Z,94857.26
2018-12-12T13:01:13.168Z,94857.48
2018-12-12T13:03:45.448Z,94859.98
2018-12-12T13:06:17.480Z,94859.69
2018-12-12T13:08:49.889Z,94861.86
2018-12-12T13:11:22.247Z,94863.64
2018-12-12T13:13:54.295Z,94862.28
2018-12-12T13:16:26.962Z,94868.19
2018-12-12T13:18:58.932Z,94866.17
2018-12-12T13:21:30.889Z,94870.06
2018-12-12T13:24:03.235Z,94874.91
2018-12-12T13:26:36.034Z,94874.70
2018-12-12T13:29:08.674Z,94876.78
2018-12-12T13:31:40.382Z,94881.25
2018-12-12T13:34:16.252Z,94887.38
2018-12-12T13:36:47.401Z,94888.45
2018-12-12T13:39:20.149Z,94891.75
2018-12-12T13:41:53.064Z,94892.14
2018-12-12T13:44:24.852Z,94894.41
2018-12-12T13:49:36.639Z,94901.62
2018-12-12T13:52:08.569Z,94899.09
2018-12-12T13:54:40.512Z,94902.85
2018-12-12T13:57:12.466Z,94903.89
2018-12-12T13:59:45.252Z,94908.59
2018-12-12T14:02:17.565Z,94913.48
2018-12-12T14:04:49.694Z,94917.89
2018-12-12T14:07:21.886Z,94912.52
2018-12-12T14:09:54.008Z,94913.55
2018-12-12T14:12:26.085Z,94910.84
2018-12-12T14:14:58.351Z,94913.80
2018-12-12T14:17:30.566Z,94908.50
2018-12-12T14:20:07.722Z,94909.52
2018-12-12T14:22:39.672Z,94912.11
2018-12-12T14:25:11.382Z,94921.32
2018-12-12T14:27:44.146Z,94916.48
2018-12-12T14:30:16.239Z,94918.36
2018-12-12T14:32:48.328Z,94923.55
2018-12-12T14:35:21.502Z,94920.55
2018-12-12T14:37:53.810Z,94917.27
2018-12-12T14:40:25.756Z,94912.84
2018-12-12T14:42:57.751Z,94916.09
2018-12-12T14:45:30.263Z,94922.30
2018-12-12T14:48:02.454Z,94924.17
2018-12-12T14:50:34.958Z,94923.36
2018-12-12T14:53:07.096Z,94925.36
2018-12-12T14:55:38.837Z,94927.58
2018-12-12T14:58:10.859Z,94923.26
2018-12-12T15:00:43.378Z,94923.47
2018-12-12T15:03:15.157Z,94928.17
2018-12-12T15:05:48.326Z,94927.91
2018-12-12T15:08:20.213Z,94923.95
2018-12-12T15:10:52.722Z,94927.28
2018-12-12T15:13:25.015Z,94926.71
2018-12-12T15:15:57.570Z,94927.98
2018-12-12T15:18:30.047Z,94932.20
2018-12-12T15:21:02.593Z,94927.77
2018-12-12T15:23:34.835Z,94929.55
2018-12-12T15:26:07.044Z,94935.66
2018-12-12T15:28:39.131Z,94933.03
2018-12-12T15:31:11.682Z,94934.48
2018-12-12T15:33:43.792Z,94934.91
2018-12-12T15:36:16.250Z,94943.70
2018-12-12T15:38:48.379Z,94948.59
2018-12-12T15:41:20.529Z,94942.28
2018-12-12T15:43:52.553Z,94944.09
2018-12-12T15:46:24.913Z,94940.91
2018-12-12T15:48:57.131Z,94933.58
2018-12-12T15:51:29.098Z,94944.48
2018-12-12T15:54:00.929Z,94945.64
2018-12-12T15:56:33.084Z,94952.63
2018-12-12T15:59:05.553Z,94954.37
2018-12-12T16:01:37.876Z,94957.39
2018-12-12T16:04:10.284Z,94949.70
2018-12-12T16:06:42.968Z,94947.12
2018-12-12T16:09:15.194Z,94947.39
2018-12-12T16:11:47.130Z,94948.03
2018-12-12T16:14:19.264Z,94954.23
2018-12-12T16:16:51.681Z,94955.28
2018-12-12T16:19:24.265Z,94951.61
2018-12-12T16:21:56.785Z,94954.98
2018-12-12T16:24:28.939Z,94952.28
2018-12-12T16:27:01.676Z,94952.14
2018-12-12T16:29:33.910Z,94955.36
2018-12-12T16:32:06.406Z,94963.08
2018-12-12T16:34:38.648Z,94953.98
2018-12-12T16:37:11.236Z,94963.47
2018-12-12T16:39:44.098Z,94952.15
2018-12-12T16:42:16.954Z,94959.01
2018-12-12T16:44:49.824Z,94954.81
2018-12-12T16:47:22.814Z,94950.38
2018-12-12T16:49:55.290Z,94946.72
2018-12-12T16:52:28.482Z,94957.08
2018-12-12T16:55:01.222Z,94949.52
2018-12-12T16:57:33.890Z,94951.88
2018-12-12T17:00:07.972Z,94953.94
2018-12-12T17:02:41.300Z,94953.04
2018-12-12T17:05:15.740Z,94959.42
2018-12-12T17:07:48.856Z,94962.07
2018-12-12T17:10:21.137Z,94964.12
2018-12-12T17:12:55.958Z,94970.73
2018-12-12T17:15:29.364Z,94973.77
2018-12-12T17:18:01.172Z,94974.26
2018-12-12T17:20:33.121Z,94976.22
2018-12-12T17:23:06.019Z,94976.20
2018-12-12T17:25:37.968Z,94976.45
2018-12-12T17:28:10.104Z,94970.16
2018-12-12T17:30:42.396Z,94971.55
2018-12-12T17:33:14.917Z,94972.63
2018-12-12T17:35:47.226Z,94974.16
2018-12-12T17:38:21.277Z,94969.13
2018-12-12T17:40:53.805Z,94969.46
2018-12-12T17:43:26.100Z,94968.47
2018-12-12T17:45:58.392Z,94968.01
2018-12-12T17:48:32.140Z,94961.72
2018-12-12T17:51:07.989Z,94960.28
2018-12-12T17:53:40.070Z,94958.78
2018-12-12T17:56:12.403Z,94968.53
2018-12-12T17:58:44.889Z,94970.52
2018-12-12T18:01:17.461Z,94977.65
2018-12-12T18:03:50.000Z,94981.65
2018-12-12T18:06:22.346Z,94981.48
2018-12-12T18:08:54.901Z,94980.80
2018-12-12T18:11:27.336Z,94985.81
2018-12-12T18:13:59.446Z,94984.50
2018-12-12T18:16:32.978Z,94986.00
2018-12-12T18:19:05.914Z,94983.38
2018-12-12T18:21:38.592Z,94993.24
2018-12-12T18:24:10.783Z,94991.25
2018-12-12T18:26:43.098Z,95001.73
2018-12-12T18:29:15.500Z,94999.27
2018-12-12T18:31:49.834Z,94995.82
2018-12-12T18:34:22.518Z,94996.86
2018-12-12T18:36:55.579Z,94995.46
2018-12-12T18:39:29.280Z,94997.88
2018-12-12T18:42:02.932Z,95003.39
2018-12-12T18:44:36.076Z,95001.78
2018-12-12T18:47:10.596Z,94999.66
2018-12-12T18:49:43.765Z,95004.57
2018-12-12T18:52:17.167Z,95003.64
2018-12-12T18:54:50.106Z,95009.30
2018-12-12T18:57:22.929Z,95006.47
2018-12-12T18:59:57.245Z,95011.49
2018-12-12T19:02:29.914Z,95008.20
2018-12-12T19:05:03.084Z,95012.44
2018-12-12T19:07:36.436Z,95011.00
2018-12-12T19:10:10.630Z,95011.45
2018-12-12T19:12:44.782Z,95007.48
2018-12-12T19:15:17.660Z,95007.96
2018-12-12T19:17:51.588Z,95014.56
2018-12-12T19:20:24.855Z,95002.08
2018-12-12T19:22:58.456Z,95005.01
2018-12-12T19:25:31.798Z,95007.26
2018-12-12T19:28:03.978Z,95009.44
2018-12-12T19:30:37.479Z,95009.87
2018-12-12T19:33:10.031Z,95005.62
2018-12-12T19:35:42.716Z,95009.89
2018-12-12T19:38:15.975Z,95006.28
2018-12-12T19:40:49.145Z,95004.05
2018-12-12T19:43:22.456Z,95006.02
2018-12-12T19:45:55.683Z,95003.39
2018-12-12T19:48:29.986Z,95006.84
2018-12-12T19:51:03.234Z,95004.81
2018-12-12T19:53:35.694Z,95011.33
2018-12-12T19:56:10.683Z,95007.33
2018-12-12T19:58:44.682Z,95009.10
2018-12-12T20:01:18.158Z,95006.16
2018-12-12T20:03:51.673Z,95007.80
2018-12-12T20:06:25.562Z,95000.18
2018-12-12T20:08:57.932Z,95007.20
2018-12-12T20:11:30.590Z,95003.64
2018-12-12T20:14:10.265Z,95000.98
2018-12-12T20:16:43.429Z,95005.39
2018-12-12T20:19:16.837Z,95002.97
2018-12-12T20:21:49.406Z,95007.78
2018-12-12T20:24:22.898Z,95006.01
2018-12-12T20:26:55.596Z,95008.25
2018-12-12T20:29:28.388Z,95002.91
2018-12-12T20:32:01.737Z,95006.27
2018-12-12T20:34:34.090Z,95002.71
2018-12-12T20:37:06.199Z,95002.49
2018-12-12T20:39:38.212Z,95003.18
2018-12-12T20:42:10.325Z,94998.41
2018-12-12T20:44:42.177Z,94998.66
2018-12-12T20:47:15.753Z,94996.66
2018-12-12T20:49:47.668Z,94995.15
2018-12-12T20:52:20.052Z,95005.18
2018-12-12T20:54:52.490Z,95002.36
2018-12-12T20:57:25.105Z,95005.96
2018-12-12T20:59:56.989Z,95011.20
2018-12-12T21:02:29.437Z,95013.55
2018-12-12T21:05:01.714Z,95014.97
2018-12-12T21:07:34.048Z,95016.55
2018-12-12T21:10:06.552Z,95017.92
2018-12-12T21:12:38.908Z,95014.61
2018-12-12T21:15:11.149Z,95014.46
2018-12-12T21:17:43.365Z,95013.73
2018-12-12T21:20:15.433Z,95019.02
2018-12-12T21:22:47.847Z,95017.01
2018-12-12T21:25:19.458Z,95014.02
2018-12-12T21:27:51.463Z,95017.80
2018-12-12T21:30:23.925Z,95023.45
2018-12-12T21:32:56.925Z,95017.23
2018-12-12T21:35:29.103Z,95017.29
2018-12-12T21:38:01.342Z,95023.33
2018-12-12T21:40:33.411Z,95026.31
2018-12-12T21:43:05.921Z,95025.73
2018-12-12T21:45:38.016Z,95022.70
2018-12-12T21:48:10.445Z,95029.36
2018-12-12T21:53:15.517Z,95028.97
2018-12-12T21:55:48.452Z,95027.77
2018-12-12T21:58:20.596Z,95038.61
2018-12-12T22:00:52.617Z,95030.54
2018-12-12T22:03:25.373Z,95035.38
2018-12-12T22:05:57.698Z,95027.27
2018-12-12T22:08:29.488Z,95027.41
2018-12-12T22:11:01.150Z,95025.80
2018-12-12T22:13:33.978Z,95028.69
2018-12-12T22:16:05.930Z,95022.36
2018-12-12T22:18:39.031Z,95019.45
2018-12-12T22:21:11.277Z,95016.52
2018-12-12T22:23:43.127Z,95019.17
2018-12-12T22:26:15.480Z,95014.00
2018-12-12T22:28:47.272Z,95017.33
2018-12-12T22:31:19.752Z,95017.86
2018-12-12T22:33:52.336Z,95017.52
2018-12-12T22:36:24.196Z,95020.34
2018-12-12T22:38:56.478Z,95020.83
2018-12-12T22:41:28.545Z,95014.77
2018-12-12T22:44:00.453Z,95012.59
2018-12-12T22:46:32.336Z,95013.23
2018-12-12T22:49:04.387Z,95011.69
2018-12-12T22:51:36.600Z,95009.61
2018-12-12T22:54:08.723Z,95005.41
2018-12-12T22:56:41.326Z,95006.61
2018-12-12T22:59:13.309Z,95008.13
2018-12-12T23:01:45.917Z,95008.17
2018-12-12T23:04:17.818Z,95008.86
2018-12-12T23:06:50.086Z,94999.02
2018-12-12T23:09:21.885Z,95001.80
2018-12-12T23:11:54.045Z,95004.38
2018-12-12T23:14:26.892Z,94999.50
2018-12-12T23:16:58.895Z,95003.88
2018-12-12T23:19:31.048Z,95007.41
2018-12-12T23:22:03.017Z,95003.41
2018-12-12T23:24:34.859Z,95000.91
2018-12-12T23:27:06.804Z,95003.84
2018-12-12T23:29:38.494Z,95005.95
2018-12-12T23:32:10.793Z,94997.19
2018-12-12T23:34:43.438Z,95007.71
2018-12-12T23:37:16.321Z,95011.45
2018-12-12T23:39:48.180Z,95006.97
2018-12-12T23:42:20.329Z,95008.26
2018-12-12T23:44:52.218Z,95012.47
2018-12-12T23:50:33.457Z,95023.66
2018-12-12T23:53:05.423Z,95023.31
2018-12-12T23:55:37.165Z,95029.39
2018-12-12T23:58:09.236Z,95030.31
